Airfield :
LOGIN :

Register | Disclaimer

   EN    FR    IT 

 










Legend :    VFR   Marginal VFR   IFR   Intensive IFR   Very Intensive IFR
Visi :
Ceiling :
>= 8 km
>= 3000ft
5 to 8 km
1000 to 3000 ft
1500m to 5 km
500 to 1000 ft
800 to 1500m
200 to 500 ft
< 800m
< 200 ft
Symbols :   Thunderstorms  Fog  Heavy snow  Heavy precipitations  Wind > 20 kt
SIGMETs :     Misc.  Thunderstorms  Icing  Turbulence  Mountain Waves  Volcanic Ashes






- Airport Elevation : 479 ft
- IATA code : DOL


LFRG - Deauville

CURRENT METAR :
  • 070730Z AUTO 33005KT 290V020 9999 BKN011 OVC031 17/15 Q1027 BECMG SCT020

EXPIRED METARs :
  • 070700Z AUTO 33007KT 280V010 9999 BKN009 OVC031 17/15 Q1027 NOSIG
  • 070630Z AUTO 32007KT 260V050 9999 OVC009 17/15 Q1027 NOSIG
  • 070600Z AUTO 31005KT 250V360 9999 OVC007 16/15 Q1027 NOSIG
  • 070530Z AUTO 33007KT 290V360 9999 BKN008 OVC027 16/15 Q1027 NOSIG
  • 070500Z AUTO 31004KT 270V350 9999 BKN008 BKN029 16/15 Q1027

TAF TAF LFRG
Valid from the 07 at 06:00 until the 07 at 15:00 UTC


070500Z 0706/0715 33010KT 9999 SCT020
TEMPO 0706/0709 BKN007
PROB30
TEMPO 0713/0715 35015G25KT
ATIS : +33 2 31 65 65 36



MET'MAP, your aeronautical weather chart ! - Copyright ORBIFLY December 2007 - Disclaimer

ORBIFLY MET'MAP TEAM :

Programming & Development : Alexandra Zaïnal
Original concept : Baudouin d'Aumeries
Technical & hardware support : Manuel Goepfert
Assistance : Marc-Olivier Méhu




SOURCES & CREDITS :

   NOAA